createdAt,value
2023-03-10T00:01:13.714Z,11.20
2023-03-10T00:03:43.583Z,11.20
2023-03-10T00:06:14.529Z,11.20
2023-03-10T00:08:43.336Z,11.10
2023-03-10T00:11:12.031Z,11.10
2023-03-10T00:13:40.572Z,11.10
2023-03-10T00:16:09.781Z,11.10
2023-03-10T00:18:37.909Z,11.10
2023-03-10T00:21:07.540Z,11.00
2023-03-10T00:23:37.467Z,11.00
2023-03-10T00:26:05.930Z,11.00
2023-03-10T00:28:34.041Z,10.90
2023-03-10T00:31:03.887Z,10.90
2023-03-10T00:33:33.325Z,10.90
2023-03-10T00:36:09.449Z,10.90
2023-03-10T00:38:38.222Z,10.90
2023-03-10T00:41:08.624Z,10.90
2023-03-10T00:43:37.975Z,10.90
2023-03-10T00:46:06.972Z,10.80
2023-03-10T00:48:35.906Z,10.90
2023-03-10T00:51:04.800Z,10.80
2023-03-10T00:53:35.498Z,10.80
2023-03-10T00:56:05.545Z,10.70
2023-03-10T00:58:35.504Z,10.80
2023-03-10T01:01:05.486Z,10.80
2023-03-10T01:03:33.620Z,10.80
2023-03-10T01:06:01.650Z,10.80
2023-03-10T01:08:29.815Z,10.80
2023-03-10T01:10:59.246Z,10.80
2023-03-10T01:13:27.377Z,10.80
2023-03-10T01:15:55.487Z,10.80
2023-03-10T01:18:23.819Z,10.80
2023-03-10T01:20:52.004Z,10.70
2023-03-10T01:23:22.802Z,10.80
2023-03-10T01:25:51.356Z,10.80
2023-03-10T01:28:21.511Z,10.70
2023-03-10T01:30:49.856Z,10.70
2023-03-10T01:33:19.566Z,10.70
2023-03-10T01:35:47.789Z,10.70
2023-03-10T01:38:15.950Z,10.80
2023-03-10T01:40:50.345Z,10.80
2023-03-10T01:43:34.090Z,10.80
2023-03-10T01:46:33.434Z,10.70
2023-03-10T01:49:05.871Z,10.70
2023-03-10T01:51:36.930Z,10.70
2023-03-10T01:54:09.303Z,10.60
2023-03-10T01:56:38.831Z,10.70
2023-03-10T01:59:09.262Z,10.70
2023-03-10T02:01:38.225Z,10.70
2023-03-10T02:04:10.020Z,10.70
2023-03-10T02:06:41.757Z,10.60
2023-03-10T02:09:10.467Z,10.70
2023-03-10T02:11:39.805Z,10.70
2023-03-10T02:14:09.281Z,10.70
2023-03-10T02:16:37.391Z,10.60
2023-03-10T02:19:10.149Z,10.60
2023-03-10T02:21:46.144Z,10.60
2023-03-10T02:24:23.605Z,10.60
2023-03-10T02:26:57.289Z,10.50
2023-03-10T02:29:29.997Z,10.60
2023-03-10T02:31:59.703Z,10.60
2023-03-10T02:34:28.900Z,10.50
2023-03-10T02:36:57.181Z,10.50
2023-03-10T02:39:25.519Z,10.50
2023-03-10T02:41:54.420Z,10.50
2023-03-10T02:44:24.597Z,10.50
2023-03-10T02:46:54.027Z,10.50
2023-03-10T02:49:25.088Z,10.40
2023-03-10T02:51:53.295Z,10.30
2023-03-10T02:54:21.384Z,10.40
2023-03-10T02:56:49.483Z,10.40
2023-03-10T02:59:17.593Z,10.30
2023-03-10T03:01:45.762Z,10.30
2023-03-10T03:04:15.287Z,10.30
2023-03-10T03:06:43.445Z,10.30
2023-03-10T03:09:11.692Z,10.30
2023-03-10T03:11:41.309Z,10.30
2023-03-10T03:14:09.383Z,10.30
2023-03-10T03:16:37.574Z,10.20
2023-03-10T03:19:05.736Z,10.20
2023-03-10T03:21:35.175Z,10.10
2023-03-10T03:24:03.352Z,10.20
2023-03-10T03:26:31.486Z,10.20
2023-03-10T03:28:59.602Z,10.20
2023-03-10T03:31:27.762Z,10.10
2023-03-10T03:33:55.828Z,10.10
2023-03-10T03:36:23.857Z,10.20
2023-03-10T03:38:53.256Z,10.10
2023-03-10T03:41:21.289Z,10.20
2023-03-10T03:43:49.403Z,10.20
2023-03-10T03:46:17.607Z,10.20
2023-03-10T03:48:45.722Z,10.10
2023-03-10T03:51:13.719Z,10.20
2023-03-10T03:53:42.086Z,10.10
2023-03-10T03:56:11.555Z,10.20
2023-03-10T03:58:39.658Z,10.20
2023-03-10T04:01:07.740Z,10.20
2023-03-10T04:03:35.779Z,10.20
2023-03-10T04:06:03.932Z,10.30
2023-03-10T04:08:32.060Z,10.20
2023-03-10T04:11:00.142Z,10.20
2023-03-10T04:13:29.592Z,10.20
2023-03-10T04:15:58.319Z,10.20
2023-03-10T04:18:26.571Z,10.20
2023-03-10T04:20:54.620Z,10.20
2023-03-10T04:23:22.745Z,10.10
2023-03-10T04:25:50.776Z,10.10
2023-03-10T04:28:18.865Z,10.00
2023-03-10T04:30:48.378Z,10.00
2023-03-10T04:33:16.454Z,10.00
2023-03-10T04:35:47.531Z,10.00
2023-03-10T04:38:15.629Z,10.10
2023-03-10T04:40:43.921Z,10.10
2023-03-10T04:43:12.160Z,10.20
2023-03-10T04:45:40.264Z,10.20
2023-03-10T04:48:09.784Z,10.30
2023-03-10T04:50:37.870Z,10.20
2023-03-10T04:53:05.836Z,10.20
2023-03-10T04:55:33.960Z,10.30
2023-03-10T04:58:02.133Z,10.20
2023-03-10T05:00:30.342Z,10.10
2023-03-10T05:02:58.377Z,10.10
2023-03-10T05:05:27.843Z,10.10
2023-03-10T05:07:55.898Z,10.00
2023-03-10T05:10:23.891Z,10.00
2023-03-10T05:12:53.095Z,10.00
2023-03-10T05:15:21.150Z,10.00
2023-03-10T05:17:50.161Z,10.00
2023-03-10T05:20:18.721Z,10.00
2023-03-10T05:22:48.130Z,9.90
2023-03-10T05:25:16.133Z,9.90
2023-03-10T05:27:44.411Z,10.00
2023-03-10T05:30:15.919Z,10.00
2023-03-10T05:32:44.665Z,9.90
2023-03-10T05:35:13.632Z,9.80
2023-03-10T05:37:43.168Z,9.90
2023-03-10T05:40:15.422Z,10.00
2023-03-10T05:42:43.492Z,10.00
2023-03-10T05:45:12.448Z,10.00
2023-03-10T05:47:40.643Z,10.00
2023-03-10T05:50:09.777Z,10.00
2023-03-10T05:52:39.321Z,10.00
2023-03-10T05:55:09.760Z,9.90
2023-03-10T05:57:39.192Z,10.00
2023-03-10T06:00:10.437Z,10.00
2023-03-10T06:02:39.144Z,9.90
2023-03-10T06:05:11.289Z,9.90
2023-03-10T06:07:40.368Z,9.90
2023-03-10T06:10:10.406Z,9.90
2023-03-10T06:12:40.056Z,9.80
2023-03-10T06:15:09.411Z,9.80
2023-03-10T06:17:37.547Z,9.80
2023-03-10T06:20:06.182Z,9.70
2023-03-10T06:22:34.398Z,9.70
2023-03-10T06:25:02.676Z,9.70
2023-03-10T06:27:31.279Z,9.60
2023-03-10T06:30:01.241Z,9.50
2023-03-10T06:32:29.368Z,9.50
2023-03-10T06:35:00.165Z,9.50
2023-03-10T06:37:28.294Z,9.50
2023-03-10T06:39:56.399Z,9.50
2023-03-10T06:42:24.423Z,9.50
2023-03-10T06:44:55.775Z,9.40
2023-03-10T06:47:25.240Z,9.40
2023-03-10T06:49:54.702Z,9.50
2023-03-10T06:52:23.129Z,9.40
2023-03-10T06:54:51.194Z,9.60
2023-03-10T06:57:21.034Z,9.60
2023-03-10T06:59:49.265Z,9.70
2023-03-10T07:02:19.841Z,9.70
2023-03-10T07:04:49.409Z,9.70
2023-03-10T07:07:17.613Z,9.80
2023-03-10T07:09:46.197Z,9.90
2023-03-10T07:12:14.551Z,9.90
2023-03-10T07:14:42.751Z,9.90
2023-03-10T07:17:11.235Z,9.80
2023-03-10T07:19:39.276Z,9.80
2023-03-10T07:22:11.263Z,9.80
2023-03-10T07:24:39.556Z,9.90
2023-03-10T07:27:07.699Z,10.00
2023-03-10T07:29:36.263Z,10.00
2023-03-10T07:32:04.548Z,10.00
2023-03-10T07:34:32.576Z,10.00
2023-03-10T07:37:00.673Z,9.90
2023-03-10T07:39:30.112Z,9.90
2023-03-10T07:41:58.135Z,10.10
2023-03-10T07:44:26.262Z,10.10
2023-03-10T07:46:54.474Z,10.20
2023-03-10T07:49:22.553Z,10.20
2023-03-10T07:51:50.661Z,10.20
2023-03-10T07:54:18.830Z,10.20
2023-03-10T07:56:50.708Z,10.20
2023-03-10T07:59:19.219Z,10.10
2023-03-10T08:01:47.322Z,9.90
2023-03-10T08:04:17.155Z,9.90
2023-03-10T08:06:46.331Z,9.90
2023-03-10T08:09:14.435Z,9.90
2023-03-10T08:11:42.533Z,9.80
2023-03-10T08:14:12.100Z,9.80
2023-03-10T08:16:40.525Z,9.80
2023-03-10T08:19:08.778Z,9.80
2023-03-10T08:21:36.889Z,9.80
2023-03-10T08:24:05.290Z,9.80
2023-03-10T08:26:33.535Z,9.80
2023-03-10T08:29:01.578Z,9.70
2023-03-10T08:31:31.039Z,9.70
2023-03-10T08:33:59.727Z,9.80
2023-03-10T08:36:30.413Z,9.80
2023-03-10T08:39:01.137Z,10.00
2023-03-10T08:41:31.059Z,10.70
2023-03-10T08:44:00.436Z,11.40
2023-03-10T08:46:31.758Z,11.60
2023-03-10T08:49:00.088Z,11.50
2023-03-10T08:51:29.350Z,11.40
2023-03-10T08:53:58.702Z,11.30
2023-03-10T08:56:27.039Z,11.40
2023-03-10T08:58:58.900Z,12.50
2023-03-10T09:01:28.777Z,13.00
2023-03-10T09:03:58.876Z,13.10
2023-03-10T09:06:27.602Z,13.20
2023-03-10T09:08:55.660Z,13.20
2023-03-10T09:11:26.305Z,13.40
2023-03-10T09:13:54.709Z,14.80
2023-03-10T09:16:22.935Z,14.50
2023-03-10T09:18:51.022Z,13.80
2023-03-10T09:21:20.931Z,13.50
2023-03-10T09:23:52.876Z,12.90
2023-03-10T09:26:22.833Z,12.60
2023-03-10T09:28:53.156Z,12.50
2023-03-10T09:31:26.527Z,12.90
2023-03-10T09:33:54.686Z,12.70
2023-03-10T09:36:24.157Z,12.50
2023-03-10T09:38:52.252Z,12.10
2023-03-10T09:41:50.162Z,11.80
2023-03-10T09:44:27.101Z,11.70
2023-03-10T09:47:15.216Z,11.70
2023-03-10T09:49:51.615Z,11.60
2023-03-10T09:52:29.308Z,11.60
2023-03-10T09:55:05.375Z,11.60
2023-03-10T09:57:34.677Z,11.50
2023-03-10T10:00:09.197Z,11.40
2023-03-10T10:02:41.659Z,11.30
2023-03-10T10:05:18.802Z,11.30
2023-03-10T10:07:52.034Z,11.30
2023-03-10T10:10:24.740Z,11.20
2023-03-10T10:12:54.604Z,11.10
2023-03-10T10:15:24.456Z,11.20
2023-03-10T10:18:17.466Z,11.10
2023-03-10T10:20:50.939Z,11.20
2023-03-10T10:23:29.580Z,11.20
2023-03-10T10:26:02.733Z,11.20
2023-03-10T10:28:41.802Z,11.20
2023-03-10T10:31:16.406Z,11.10
2023-03-10T10:33:59.358Z,11.10
2023-03-10T10:36:30.886Z,11.10
2023-03-10T10:39:01.313Z,11.10
2023-03-10T10:41:31.525Z,11.10
2023-03-10T10:44:07.152Z,11.10
2023-03-10T10:46:35.445Z,11.20
2023-03-10T10:49:12.256Z,11.20
2023-03-10T10:51:40.744Z,11.20
2023-03-10T10:54:28.304Z,11.20
2023-03-10T10:56:58.570Z,11.20
2023-03-10T10:59:31.018Z,11.60
2023-03-10T11:02:01.286Z,11.80
2023-03-10T11:04:31.013Z,11.90
2023-03-10T11:07:12.761Z,11.70
2023-03-10T11:09:42.441Z,11.40
2023-03-10T11:12:20.429Z,11.60
2023-03-10T11:15:08.450Z,11.50
2023-03-10T11:17:42.932Z,11.50
2023-03-10T11:20:24.279Z,11.30
2023-03-10T11:22:59.538Z,11.30
2023-03-10T11:25:37.078Z,11.30
2023-03-10T11:28:29.987Z,11.20
2023-03-10T11:31:05.996Z,11.30
2023-03-10T11:33:40.391Z,11.30
2023-03-10T11:36:20.417Z,11.20
2023-03-10T11:38:51.294Z,11.20
2023-03-10T11:41:24.951Z,11.10
2023-03-10T11:43:59.156Z,11.10
2023-03-10T11:46:33.554Z,11.10
2023-03-10T11:49:07.750Z,11.10
2023-03-10T11:51:40.615Z,11.10
2023-03-10T11:54:16.145Z,11.10
2023-03-10T11:56:46.084Z,11.20
2023-03-10T11:59:17.981Z,11.20
2023-03-10T12:01:49.483Z,11.30
2023-03-10T12:04:22.585Z,11.40
2023-03-10T12:06:56.215Z,11.60
2023-03-10T12:09:34.420Z,11.70
2023-03-10T12:12:05.673Z,11.60
2023-03-10T12:14:35.770Z,11.70
2023-03-10T12:17:05.367Z,11.80
2023-03-10T12:19:33.496Z,11.80
2023-03-10T12:22:24.844Z,11.60
2023-03-10T12:24:54.193Z,11.40
2023-03-10T12:27:23.764Z,11.50
2023-03-10T12:29:51.905Z,11.40
2023-03-10T12:32:42.707Z,11.30
2023-03-10T12:35:25.235Z,11.30
2023-03-10T12:38:31.280Z,11.30
2023-03-10T12:41:00.852Z,11.30
2023-03-10T12:43:56.759Z,11.10
2023-03-10T12:46:44.229Z,11.10
2023-03-10T12:49:26.765Z,11.10
2023-03-10T12:52:01.095Z,11.00
2023-03-10T12:54:42.371Z,10.90
2023-03-10T12:57:17.024Z,10.80
2023-03-10T12:59:53.527Z,11.00
2023-03-10T13:02:33.317Z,10.90
2023-03-10T13:05:05.498Z,10.90
2023-03-10T13:07:33.864Z,10.90
2023-03-10T13:10:03.817Z,10.90
2023-03-10T13:12:38.663Z,10.90
2023-03-10T13:15:09.012Z,10.60
2023-03-10T13:17:37.055Z,10.60
2023-03-10T13:20:09.517Z,10.70
2023-03-10T13:22:37.607Z,10.80
2023-03-10T13:25:09.633Z,10.80
2023-03-10T13:27:37.864Z,10.70
2023-03-10T13:30:15.792Z,10.70
2023-03-10T13:32:52.388Z,10.70
2023-03-10T13:35:25.942Z,10.70
2023-03-10T13:38:08.431Z,10.70
2023-03-10T13:40:39.277Z,10.70
2023-03-10T13:43:09.114Z,10.50
2023-03-10T13:45:37.252Z,10.50
2023-03-10T13:48:06.276Z,10.50
2023-03-10T13:50:34.409Z,10.50
2023-03-10T13:53:04.552Z,10.40
2023-03-10T13:55:41.785Z,10.50
2023-03-10T13:58:13.756Z,10.50
2023-03-10T14:00:47.526Z,10.50
2023-03-10T14:03:17.071Z,10.30
2023-03-10T14:05:47.919Z,10.40
2023-03-10T14:08:21.717Z,10.40
2023-03-10T14:10:51.246Z,10.30
2023-03-10T14:13:44.480Z,10.40
2023-03-10T14:16:13.404Z,10.40
2023-03-10T14:18:43.136Z,10.50
2023-03-10T14:21:33.355Z,10.50
2023-03-10T14:24:06.443Z,10.50
2023-03-10T14:26:35.887Z,10.50
2023-03-10T14:29:04.707Z,10.60
2023-03-10T14:31:32.763Z,10.60
2023-03-10T14:34:00.862Z,10.50
2023-03-10T14:36:28.896Z,10.50
2023-03-10T14:38:56.965Z,10.50
2023-03-10T14:41:26.117Z,10.50
2023-03-10T14:43:55.543Z,10.50
2023-03-10T14:46:23.757Z,10.50
2023-03-10T14:48:51.914Z,10.40
2023-03-10T14:51:34.506Z,10.40
2023-03-10T14:54:04.104Z,10.50
2023-03-10T14:56:32.980Z,10.40
2023-03-10T14:59:02.857Z,10.40
2023-03-10T15:01:31.622Z,10.40
2023-03-10T15:03:59.716Z,10.40
2023-03-10T15:06:28.045Z,10.40
2023-03-10T15:08:56.104Z,10.40
2023-03-10T15:11:36.191Z,10.40
2023-03-10T15:14:14.842Z,10.40
2023-03-10T15:16:43.033Z,10.30
2023-03-10T15:19:18.440Z,10.30
2023-03-10T15:21:46.592Z,10.30
2023-03-10T15:24:17.743Z,10.20
2023-03-10T15:26:45.892Z,10.10
2023-03-10T15:29:16.629Z,10.20
2023-03-10T15:31:44.869Z,10.20
2023-03-10T15:34:13.088Z,10.00
2023-03-10T15:36:41.207Z,9.90
2023-03-10T15:39:11.065Z,9.90
2023-03-10T15:41:42.263Z,10.00
2023-03-10T15:44:10.699Z,10.00
2023-03-10T15:46:40.828Z,10.00
2023-03-10T15:49:09.046Z,10.00
2023-03-10T15:51:37.091Z,10.00
2023-03-10T15:54:05.256Z,10.20
2023-03-10T15:56:34.064Z,10.20
2023-03-10T15:59:02.396Z,10.30
2023-03-10T16:01:30.541Z,10.20
2023-03-10T16:04:01.920Z,10.30
2023-03-10T16:06:30.213Z,10.20
2023-03-10T16:08:58.272Z,10.20
2023-03-10T16:11:26.543Z,10.10
2023-03-10T16:13:54.610Z,10.10
2023-03-10T16:16:24.226Z,10.10
2023-03-10T16:18:52.557Z,10.00
2023-03-10T16:21:22.408Z,10.00
2023-03-10T16:23:50.450Z,10.00
2023-03-10T16:26:20.891Z,10.00
2023-03-10T16:28:50.975Z,9.90
2023-03-10T16:31:20.897Z,9.90
2023-03-10T16:33:51.028Z,9.90
2023-03-10T16:36:22.568Z,9.80
2023-03-10T16:38:51.010Z,9.80
2023-03-10T16:41:19.188Z,9.90
2023-03-10T16:43:47.807Z,9.80
2023-03-10T16:46:17.386Z,9.50
2023-03-10T16:48:48.021Z,9.40
2023-03-10T16:51:27.693Z,9.30
2023-03-10T16:53:57.493Z,9.30
2023-03-10T16:56:26.454Z,9.30
2023-03-10T16:58:55.086Z,9.30
2023-03-10T17:01:24.915Z,9.30
2023-03-10T17:03:53.601Z,9.20
2023-03-10T17:06:25.477Z,9.20
2023-03-10T17:08:54.711Z,9.20
2023-03-10T17:11:24.718Z,9.10
2023-03-10T17:13:54.725Z,9.10
2023-03-10T17:16:28.056Z,9.10
2023-03-10T17:18:57.546Z,9.00
2023-03-10T17:21:28.983Z,8.90
2023-03-10T17:23:57.202Z,9.00
2023-03-10T17:26:25.834Z,9.00
2023-03-10T17:28:53.921Z,8.90
2023-03-10T17:31:27.046Z,8.80
2023-03-10T17:33:56.928Z,8.90
2023-03-10T17:36:26.651Z,8.90
2023-03-10T17:38:55.684Z,8.80
2023-03-10T17:41:24.324Z,8.80
2023-03-10T17:43:54.080Z,8.80
2023-03-10T17:46:24.195Z,8.70
2023-03-10T17:48:52.857Z,8.60
2023-03-10T17:51:23.399Z,8.50
2023-03-10T17:53:53.581Z,8.50
2023-03-10T17:56:22.653Z,8.60
2023-03-10T17:58:50.825Z,8.50
2023-03-10T18:01:21.204Z,8.50
2023-03-10T18:03:49.653Z,8.50
2023-03-10T18:06:20.892Z,8.50
2023-03-10T18:08:49.060Z,8.50
2023-03-10T18:11:19.884Z,8.50
2023-03-10T18:13:48.060Z,8.50
2023-03-10T18:16:18.543Z,8.50
2023-03-10T18:18:47.068Z,8.60
2023-03-10T18:21:17.099Z,8.60
2023-03-10T18:23:45.828Z,8.50
2023-03-10T18:26:15.713Z,8.40
2023-03-10T18:28:45.135Z,8.50
2023-03-10T18:31:21.496Z,8.40
2023-03-10T18:33:49.789Z,8.40
2023-03-10T18:36:24.076Z,8.40
2023-03-10T18:38:52.899Z,8.30
2023-03-10T18:41:22.147Z,8.20
2023-03-10T18:43:52.184Z,8.20
2023-03-10T18:46:20.335Z,8.20
2023-03-10T18:48:48.502Z,8.20
2023-03-10T18:51:17.083Z,8.30
2023-03-10T18:53:45.269Z,8.30
2023-03-10T18:56:13.472Z,8.10
2023-03-10T18:58:41.832Z,8.20
2023-03-10T19:01:13.334Z,8.20
2023-03-10T19:03:41.915Z,8.20
2023-03-10T19:06:10.335Z,8.20
2023-03-10T19:08:39.672Z,8.20
2023-03-10T19:11:10.538Z,8.10
2023-03-10T19:13:40.590Z,8.10
2023-03-10T19:16:10.254Z,8.20
2023-03-10T19:18:40.332Z,8.10
2023-03-10T19:21:09.469Z,8.10
2023-03-10T19:23:37.958Z,8.00
2023-03-10T19:26:06.974Z,8.10
2023-03-10T19:28:35.018Z,8.00
2023-03-10T19:31:08.581Z,8.00
2023-03-10T19:33:38.230Z,7.90
2023-03-10T19:36:11.902Z,7.70
2023-03-10T19:38:40.917Z,7.70
2023-03-10T19:41:14.196Z,7.70
2023-03-10T19:43:42.527Z,7.60
2023-03-10T19:46:12.873Z,7.60
2023-03-10T19:48:41.560Z,7.60
2023-03-10T19:51:16.436Z,7.60
2023-03-10T19:53:44.498Z,7.70
2023-03-10T19:56:12.580Z,7.70
2023-03-10T19:58:40.632Z,7.60
2023-03-10T20:01:13.665Z,7.60
2023-03-10T20:03:42.468Z,7.60
2023-03-10T20:06:11.872Z,7.50
2023-03-10T20:08:39.997Z,7.50
2023-03-10T20:11:11.811Z,7.30
2023-03-10T20:13:40.028Z,7.30
2023-03-10T20:16:08.788Z,7.20
2023-03-10T20:18:38.769Z,7.20
2023-03-10T20:21:07.908Z,7.20
2023-03-10T20:23:37.646Z,7.20
2023-03-10T20:26:07.898Z,7.20
2023-03-10T20:28:37.627Z,7.10
2023-03-10T20:31:05.834Z,7.10
2023-03-10T20:33:35.243Z,7.00
2023-03-10T20:36:03.406Z,6.90
2023-03-10T20:38:31.534Z,7.00
2023-03-10T20:41:00.955Z,7.00
2023-03-10T20:43:29.074Z,7.00
2023-03-10T20:45:57.211Z,6.90
2023-03-10T20:48:26.632Z,6.90
2023-03-10T20:50:55.902Z,6.90
2023-03-10T20:53:24.157Z,6.80
2023-03-10T20:55:52.313Z,6.90
2023-03-10T20:58:22.580Z,6.80
2023-03-10T21:00:50.967Z,6.80
2023-03-10T21:03:19.087Z,6.80
2023-03-10T21:05:47.100Z,6.70
2023-03-10T21:08:15.193Z,6.70
2023-03-10T21:10:44.582Z,6.50
2023-03-10T21:13:12.924Z,6.50
2023-03-10T21:15:42.348Z,6.50
2023-03-10T21:18:10.437Z,6.50
2023-03-10T21:20:38.506Z,6.50
2023-03-10T21:23:06.576Z,6.60
2023-03-10T21:25:34.614Z,6.40
2023-03-10T21:28:02.692Z,6.40
2023-03-10T21:30:34.196Z,6.40
2023-03-10T21:33:03.702Z,6.40
2023-03-10T21:35:34.228Z,6.40
2023-03-10T21:38:02.312Z,6.30
2023-03-10T21:40:30.465Z,6.30
2023-03-10T21:43:00.840Z,6.30
2023-03-10T21:45:30.260Z,6.30
2023-03-10T21:47:58.387Z,6.20
2023-03-10T21:50:27.929Z,6.30
2023-03-10T21:52:55.996Z,6.30
2023-03-10T21:55:26.164Z,6.20
2023-03-10T21:57:54.299Z,6.20
2023-03-10T22:00:24.435Z,6.20
2023-03-10T22:02:53.865Z,6.20
2023-03-10T22:05:22.835Z,6.20
2023-03-10T22:07:53.390Z,6.10
2023-03-10T22:10:21.479Z,6.10
2023-03-10T22:12:49.795Z,6.10
2023-03-10T22:15:20.425Z,6.10
2023-03-10T22:17:49.000Z,6.10
2023-03-10T22:20:18.638Z,6.10
2023-03-10T22:22:46.742Z,6.00
2023-03-10T22:25:16.689Z,6.00
2023-03-10T22:27:46.116Z,6.00
2023-03-10T22:30:15.058Z,6.00
2023-03-10T22:32:43.479Z,5.90
2023-03-10T22:35:11.967Z,5.90
2023-03-10T22:37:41.070Z,5.90
2023-03-10T22:40:16.319Z,5.90
2023-03-10T22:42:45.067Z,5.90
2023-03-10T22:45:18.601Z,5.80
2023-03-10T22:47:47.641Z,5.80
2023-03-10T22:50:17.617Z,5.80
2023-03-10T22:52:45.827Z,5.70
2023-03-10T22:55:17.389Z,5.70
2023-03-10T22:57:45.515Z,5.60
2023-03-10T23:00:19.376Z,5.70
2023-03-10T23:02:48.254Z,5.70
2023-03-10T23:05:17.027Z,5.70
2023-03-10T23:07:45.651Z,5.60
2023-03-10T23:10:19.693Z,5.70
2023-03-10T23:12:48.068Z,5.70
2023-03-10T23:15:24.769Z,5.80
2023-03-10T23:17:54.002Z,5.80
2023-03-10T23:20:24.237Z,5.80
2023-03-10T23:22:52.612Z,5.60
2023-03-10T23:25:25.268Z,5.70
2023-03-10T23:27:54.139Z,5.70
2023-03-10T23:30:22.397Z,5.70
2023-03-10T23:32:51.907Z,5.60
2023-03-10T23:35:22.612Z,5.60
2023-03-10T23:37:50.689Z,5.50
2023-03-10T23:40:22.435Z,5.60
2023-03-10T23:42:51.184Z,5.60
2023-03-10T23:45:21.114Z,5.50
2023-03-10T23:47:50.600Z,5.60
2023-03-10T23:50:21.807Z,5.50
2023-03-10T23:52:50.012Z,5.50
2023-03-10T23:55:21.063Z,5.50
2023-03-10T23:57:50.762Z,5.40
